Time;durP1;ratioP1;P1;durP2;ratioP2;P2;SDS_P1;SDS_P2;PMS_P1;PMS_P2;Temp;Humidity;BMP_temperature;BMP_pressure;BME280_temperature;BME280_humidity;BME280_pressure;Samples;Min_cycle;Max_cycle;Signal;HPM_P1;HPM_P2
2022/04/27 00:01:42;;;;;;;22.67;14.10;;;;;;;5.25;100.00;98952.16;4225880;27;20036;-71
2022/04/27 00:03:43;;;;;;;23.90;14.23;;;;;;;5.24;100.00;98944.28;4222086;27;20539;-71
2022/04/27 00:05:43;;;;;;;25.73;15.25;;;;;;;5.23;100.00;98945.41;4221017;28;20195;-71
2022/04/27 00:07:44;;;;;;;24.65;15.02;;;;;;;5.19;100.00;98941.72;4220100;28;20840;-71
2022/04/27 00:09:44;;;;;;;25.33;15.32;;;;;;;5.14;100.00;98939.16;4222151;27;20054;-71
2022/04/27 00:11:44;;;;;;;26.80;14.80;;;;;;;5.09;100.00;98934.66;4224256;27;20063;-71
2022/04/27 00:13:45;;;;;;;22.88;14.55;;;;;;;5.03;100.00;98945.00;4223478;27;20093;-71
2022/04/27 00:15:45;;;;;;;25.08;15.10;;;;;;;4.98;100.00;98953.44;4220858;28;20434;-71
2022/04/27 00:17:45;;;;;;;24.80;13.70;;;;;;;4.98;100.00;98942.47;4219995;27;20391;-71
2022/04/27 00:19:46;;;;;;;21.95;13.52;;;;;;;5.03;100.00;98946.94;4220454;27;20202;-71
2022/04/27 00:21:46;;;;;;;22.58;13.90;;;;;;;4.98;100.00;98949.88;4220417;28;20051;-71
2022/04/27 00:23:46;;;;;;;22.17;14.05;;;;;;;4.95;100.00;98942.31;4232085;27;20498;-71
2022/04/27 00:25:47;;;;;;;26.02;13.55;;;;;;;4.91;100.00;98939.44;4227215;27;20135;-71
2022/04/27 00:27:47;;;;;;;22.80;14.30;;;;;;;4.84;100.00;98935.59;4220718;27;20055;-71
2022/04/27 00:29:47;;;;;;;20.75;13.20;;;;;;;4.73;100.00;98938.69;4220801;27;20390;-71
2022/04/27 00:31:48;;;;;;;23.75;14.18;;;;;;;4.68;100.00;98949.03;4220666;28;20046;-71
2022/04/27 00:33:48;;;;;;;23.02;14.20;;;;;;;4.60;100.00;98942.44;4220373;27;20475;-71
2022/04/27 00:35:48;;;;;;;24.08;14.27;;;;;;;4.58;100.00;98943.91;4220463;28;20360;-71
2022/04/27 00:37:49;;;;;;;23.88;14.57;;;;;;;4.56;100.00;98948.91;4219899;28;20044;-71
2022/04/27 00:39:49;;;;;;;22.35;13.30;;;;;;;4.49;100.00;98947.47;4221028;28;20056;-71
2022/04/27 00:41:59;;;;;;;27.63;14.82;;;;;;;4.42;100.00;98952.66;4220142;28;20044;-71
2022/04/27 00:43:59;;;;;;;24.67;13.60;;;;;;;4.39;100.00;98950.56;4220693;28;20428;-71
2022/04/27 00:45:59;;;;;;;23.88;13.75;;;;;;;4.33;100.00;98945.56;4220482;28;20052;-71
2022/04/27 00:48:00;;;;;;;24.88;13.38;;;;;;;4.38;100.00;98948.13;4219941;27;20207;-71
2022/04/27 00:50:02;;;;;;;25.00;14.32;;;;;;;4.26;100.00;98942.53;4220295;27;20130;-71
2022/04/27 00:52:03;;;;;;;33.38;15.65;;;;;;;4.26;100.00;98954.28;4220163;28;20043;-71
2022/04/27 00:54:03;;;;;;;21.85;13.30;;;;;;;4.27;100.00;98944.94;4226538;27;20029;-72
2022/04/27 00:56:04;;;;;;;22.55;13.38;;;;;;;4.27;100.00;98958.63;4220318;27;20023;-71
2022/04/27 00:58:06;;;;;;;25.77;13.45;;;;;;;4.29;100.00;98961.84;4219069;28;20053;-71
2022/04/27 01:00:10;;;;;;;23.17;14.60;;;;;;;4.27;100.00;98964.13;4219932;28;20276;-71
2022/04/27 01:02:10;;;;;;;22.25;13.70;;;;;;;4.22;100.00;98959.63;4220217;28;20066;-71
2022/04/27 01:04:11;;;;;;;24.35;14.48;;;;;;;4.16;100.00;98971.88;4227149;27;20734;-71
2022/04/27 01:06:11;;;;;;;22.70;13.30;;;;;;;4.10;100.00;98964.94;4220516;27;20443;-71
2022/04/27 01:08:12;;;;;;;25.83;14.93;;;;;;;4.09;100.00;98976.22;4218907;28;20035;-71
2022/04/27 01:10:13;;;;;;;26.13;14.43;;;;;;;4.03;100.00;98983.78;4223474;27;20046;-71
2022/04/27 01:12:15;;;;;;;25.00;14.20;;;;;;;3.99;100.00;98971.88;4225798;27;20027;-71
2022/04/27 01:14:16;;;;;;;;;;;;;;;4.00;100.00;98983.63;4220627;27;20420;-71
2022/04/27 01:16:16;;;;;;;22.23;13.48;;;;;;;3.91;100.00;98973.47;4219998;28;19919;-71
2022/04/27 01:18:16;;;;;;;24.13;14.48;;;;;;;3.97;100.00;98985.06;4219445;27;20034;-71
2022/04/27 01:20:17;;;;;;;21.80;13.30;;;;;;;4.01;100.00;98980.56;4219903;28;20110;-71
2022/04/27 01:22:18;;;;;;;24.52;14.15;;;;;;;3.95;100.00;98987.31;4226273;27;20043;-71
2022/04/27 01:24:20;;;;;;;23.95;14.95;;;;;;;3.97;100.00;98981.53;4225317;27;20031;-71
2022/04/27 01:26:20;;;;;;;22.88;14.38;;;;;;;3.97;100.00;98974.09;4220115;28;20528;-71
2022/04/27 01:28:24;;;;;;;22.52;12.50;;;;;;;3.92;100.00;98974.28;4218489;28;20048;-71
2022/04/27 01:30:24;;;;;;;21.85;12.43;;;;;;;3.92;100.00;98986.03;4219831;28;20040;-71
2022/04/27 01:32:25;;;;;;;22.88;14.02;;;;;;;3.91;100.00;98986.38;4220166;27;20048;-71
2022/04/27 01:34:25;;;;;;;22.38;13.23;;;;;;;3.88;100.00;98985.06;4220026;28;20127;-71
2022/04/27 01:36:25;;;;;;;20.95;12.57;;;;;;;3.87;100.00;98986.19;4220848;28;20046;-71
2022/04/27 01:38:27;;;;;;;23.02;12.73;;;;;;;3.86;100.00;98994.72;4221602;28;20045;-71
2022/04/27 01:40:27;;;;;;;24.40;13.32;;;;;;;3.83;100.00;98985.25;4228873;27;20139;-71
2022/04/27 01:42:27;;;;;;;25.30;14.05;;;;;;;3.85;100.00;98987.66;4219570;28;20765;-71
2022/04/27 01:44:28;;;;;;;20.15;12.75;;;;;;;3.79;100.00;98995.19;4219906;28;20387;-71
2022/04/27 01:46:28;;;;;;;21.98;13.88;;;;;;;3.73;100.00;98996.50;4219843;28;20479;-71
2022/04/27 01:48:29;;;;;;;23.58;12.63;;;;;;;3.73;100.00;98995.69;4218907;28;20040;-71
2022/04/27 01:50:29;;;;;;;19.55;12.23;;;;;;;3.73;100.00;98984.75;4222023;28;20435;-73
2022/04/27 01:54:48;;;;;;;25.33;13.32;;;;;;;3.76;100.00;98989.56;4220010;27;20491;-73
2022/04/27 01:56:50;;;;;;;22.33;13.27;;;;;;;3.77;100.00;98985.72;4223121;28;20126;-73
2022/04/27 01:58:51;;;;;;;21.73;12.80;;;;;;;3.81;100.00;98984.75;4221701;27;20456;-73
2022/04/27 02:00:52;;;;;;;22.42;12.75;;;;;;;3.79;100.00;98986.19;4219449;28;20123;-73
2022/04/27 02:02:52;;;;;;;21.40;11.95;;;;;;;3.74;100.00;98997.31;4219406;28;20043;-73
2022/04/27 02:04:54;;;;;;;21.92;12.52;;;;;;;3.71;100.00;98987.78;4219523;28;20043;-73
2022/04/27 02:06:55;;;;;;;22.23;12.80;;;;;;;3.70;100.00;98993.59;4218855;28;20063;-73
2022/04/27 02:08:57;;;;;;;20.40;13.20;;;;;;;3.61;100.00;98993.56;4220057;28;20063;-73
2022/04/27 02:10:57;;;;;;;21.50;12.93;;;;;;;3.58;100.00;99000.50;4222974;27;20032;-73
2022/04/27 02:12:57;;;;;;;18.85;11.65;;;;;;;3.51;100.00;99002.09;4221574;27;20585;-73
2022/04/27 02:14:58;;;;;;;19.50;12.63;;;;;;;3.48;100.00;99000.00;4228292;27;20073;-73
2022/04/27 02:16:59;;;;;;;21.77;13.18;;;;;;;3.47;100.00;99006.56;4234267;27;20450;-73
2022/04/27 02:18:59;;;;;;;19.98;12.23;;;;;;;3.37;100.00;98996.72;4222890;27;20043;-73
2022/04/27 02:21:00;;;;;;;21.02;11.65;;;;;;;3.33;100.00;99001.25;4222760;28;20147;-73
2022/04/27 02:23:00;;;;;;;23.35;13.15;;;;;;;3.29;100.00;98992.84;4223148;27;20399;-73
2022/04/27 02:25:01;;;;;;;19.65;12.23;;;;;;;3.24;100.00;99006.69;4222692;27;20076;-73
2022/04/27 02:27:02;;;;;;;19.80;11.68;;;;;;;3.24;100.00;99003.94;4222233;28;20364;-73
2022/04/27 02:29:03;;;;;;;20.70;12.05;;;;;;;3.20;100.00;99004.88;4222970;27;20065;-73
2022/04/27 02:31:03;;;;;;;20.30;11.45;;;;;;;3.16;100.00;99004.72;4227884;27;20077;-72
2022/04/27 02:33:03;;;;;;;19.17;12.15;;;;;;;3.12;100.00;99006.47;4222582;27;20074;-73
2022/04/27 02:35:06;;;;;;;18.88;11.55;;;;;;;3.17;100.00;99006.34;4227145;27;20036;-73
2022/04/27 02:37:06;;;;;;;18.35;11.35;;;;;;;3.15;100.00;99000.38;4223451;27;20091;-73
2022/04/27 02:39:06;;;;;;;18.73;10.70;;;;;;;3.15;100.00;99005.84;4222412;28;20054;-73
2022/04/27 02:41:07;;;;;;;20.13;11.82;;;;;;;3.17;100.00;99011.81;4222484;28;20031;-73
2022/04/27 02:43:07;;;;;;;20.90;12.38;;;;;;;3.16;100.00;99010.19;4222609;28;20119;-73
2022/04/27 02:45:08;;;;;;;18.80;12.75;;;;;;;3.16;100.00;99014.88;4221476;28;20032;-73
2022/04/27 02:47:08;;;;;;;19.40;11.70;;;;;;;3.16;100.00;99021.13;4221785;27;20043;-73
2022/04/27 02:51:51;;;;;;;22.65;12.55;;;;;;;3.19;100.00;99019.69;4192424;28;20052;-73
2022/04/27 02:53:51;;;;;;;21.85;12.30;;;;;;;3.19;100.00;99033.34;4234373;27;20047;-73
2022/04/27 02:55:51;;;;;;;19.45;12.43;;;;;;;3.25;100.00;99026.63;4222017;27;20391;-73
2022/04/27 02:57:52;;;;;;;18.98;11.38;;;;;;;3.21;100.00;99026.44;4221856;28;20090;-73
2022/04/27 02:59:53;;;;;;;18.02;11.23;;;;;;;3.27;100.00;99027.13;4222269;28;20052;-73
2022/04/27 03:01:53;;;;;;;21.17;12.40;;;;;;;3.30;100.00;99031.94;4221979;27;20040;-73
2022/04/27 03:03:54;;;;;;;20.63;11.90;;;;;;;3.25;100.00;99034.84;4226226;27;20043;-73
2022/04/27 03:05:54;;;;;;;22.27;12.48;;;;;;;3.24;100.00;99036.78;4224997;27;20054;-73
2022/04/27 03:07:54;;;;;;;26.65;13.50;;;;;;;3.22;100.00;99030.78;4222246;27;20063;-73
2022/04/27 03:09:55;;;;;;;20.33;12.48;;;;;;;3.17;100.00;99041.06;4228956;27;20710;-73
2022/04/27 03:11:56;;;;;;;21.63;12.50;;;;;;;3.12;100.00;99044.75;4229976;27;20096;-73
2022/04/27 03:13:56;;;;;;;19.73;11.82;;;;;;;3.09;100.00;99039.91;4225575;27;20649;-72
2022/04/27 03:15:57;;;;;;;19.92;12.13;;;;;;;3.08;100.00;99032.84;4227148;27;20061;-72
2022/04/27 03:20:16;;;;;;;21.85;12.05;;;;;;;3.05;100.00;99039.72;4220203;28;20081;-72
2022/04/27 03:22:16;;;;;;;20.50;11.35;;;;;;;3.03;100.00;99041.16;4225170;27;20035;-73
2022/04/27 03:24:17;;;;;;;20.55;11.45;;;;;;;3.02;100.00;99051.31;4222306;27;20459;-73
2022/04/27 03:26:17;;;;;;;16.35;11.10;;;;;;;3.03;100.00;99049.38;4221425;28;20038;-72
2022/04/27 03:28:18;;;;;;;20.30;11.32;;;;;;;3.02;100.00;99045.03;4225839;27;20057;-73
2022/04/27 03:30:18;;;;;;;18.05;11.13;;;;;;;3.08;100.00;99058.25;4221946;27;20727;-73
2022/04/27 03:32:19;;;;;;;19.75;11.60;;;;;;;3.09;100.00;99054.41;4221546;28;20110;-72
2022/04/27 03:34:19;;;;;;;18.23;11.52;;;;;;;3.15;100.00;99060.53;4226293;27;20019;-73
2022/04/27 03:36:20;;;;;;;21.58;11.77;;;;;;;3.18;100.00;99068.09;4221681;28;20326;-72
2022/04/27 03:38:20;;;;;;;20.60;12.20;;;;;;;3.17;100.00;99061.03;4220641;27;20180;-72
2022/04/27 03:40:21;;;;;;;20.33;12.05;;;;;;;3.25;100.00;99073.13;4228529;27;20488;-73
2022/04/27 03:42:22;;;;;;;19.42;11.70;;;;;;;3.31;100.00;99069.94;4221532;28;20047;-72
2022/04/27 03:44:22;;;;;;;19.55;11.70;;;;;;;3.27;100.00;99076.34;4227271;27;20035;-72
2022/04/27 03:46:23;;;;;;;18.00;11.35;;;;;;;3.16;100.00;99077.75;4221191;28;20051;-72
2022/04/27 03:48:23;;;;;;;18.77;11.70;;;;;;;3.11;100.00;99081.41;4227240;27;20104;-73
2022/04/27 03:50:23;;;;;;;21.23;11.73;;;;;;;2.98;100.00;99071.38;4222001;28;20052;-73
2022/04/27 03:52:25;;;;;;;18.83;11.40;;;;;;;2.86;100.00;99090.28;4221132;28;20036;-73
2022/04/27 03:54:25;;;;;;;21.95;12.77;;;;;;;2.76;100.00;99094.88;4233809;27;20096;-73
2022/04/27 03:56:26;;;;;;;18.25;10.77;;;;;;;2.66;100.00;99086.16;4221689;27;20036;-72
2022/04/27 03:58:26;;;;;;;21.55;13.20;;;;;;;2.64;100.00;99093.81;4220413;27;20127;-72
2022/04/27 04:00:28;;;;;;;17.45;11.35;;;;;;;2.65;100.00;99099.00;4221803;27;20131;-72
2022/04/27 04:02:28;;;;;;;19.70;11.70;;;;;;;2.62;100.00;99096.88;4227461;27;20490;-73
2022/04/27 04:04:28;;;;;;;18.25;11.63;;;;;;;2.61;100.00;99103.44;4222995;27;20269;-72
2022/04/27 04:06:29;;;;;;;18.55;11.00;;;;;;;2.61;100.00;99097.19;4220471;27;20050;-72
2022/04/27 04:08:29;;;;;;;16.10;10.88;;;;;;;2.54;100.00;99101.16;4227012;27;20476;-72
2022/04/27 04:10:30;;;;;;;17.65;10.98;;;;;;;2.59;100.00;99107.63;4221545;27;20123;-73
2022/04/27 04:12:30;;;;;;;17.77;11.40;;;;;;;2.63;100.00;99116.78;4221026;27;20460;-73
2022/04/27 04:14:30;;;;;;;17.60;11.05;;;;;;;2.60;100.00;99106.50;4220747;28;20495;-72
2022/04/27 04:16:31;;;;;;;17.65;10.48;;;;;;;2.64;100.00;99116.47;4220659;27;20075;-73
2022/04/27 04:18:31;;;;;;;19.65;11.57;;;;;;;2.64;100.00;99121.13;4227140;27;20368;-73
2022/04/27 04:20:32;;;;;;;19.27;10.75;;;;;;;2.64;100.00;99130.16;4221110;27;20052;-72
2022/04/27 04:22:32;;;;;;;18.10;10.18;;;;;;;2.68;100.00;99130.34;4222181;27;20725;-72
2022/04/27 04:24:33;;;;;;;18.80;11.05;;;;;;;2.67;100.00;99132.28;4223677;27;20164;-72
2022/04/27 04:28:52;;;;;;;18.30;10.70;;;;;;;2.63;100.00;99135.91;4220513;28;20050;-72
2022/04/27 04:30:52;;;;;;;16.77;9.85;;;;;;;2.61;100.00;99141.69;4220734;28;20047;-72
2022/04/27 04:32:53;;;;;;;21.13;10.48;;;;;;;2.62;100.00;99143.31;4219575;28;20064;-72
2022/04/27 04:34:53;;;;;;;17.95;10.07;;;;;;;2.61;100.00;99138.16;4220700;28;20042;-72
2022/04/27 04:36:53;;;;;;;18.88;10.20;;;;;;;2.61;100.00;99152.63;4220414;28;20122;-73
2022/04/27 04:38:54;;;;;;;18.05;10.90;;;;;;;2.58;100.00;99153.25;4220636;27;20046;-73
2022/04/27 04:40:54;;;;;;;15.68;10.07;;;;;;;2.55;100.00;99156.59;4220662;28;20039;-73
2022/04/27 04:42:54;;;;;;;16.63;10.45;;;;;;;2.62;100.00;99150.69;4222021;27;20059;-72
2022/04/27 04:44:55;;;;;;;14.13;9.70;;;;;;;2.62;100.00;99154.25;4220079;27;20062;-73
2022/04/27 04:46:55;;;;;;;17.75;10.57;;;;;;;2.64;100.00;99151.19;4219519;28;20146;-72
2022/04/27 04:48:55;;;;;;;17.90;10.35;;;;;;;2.63;100.00;99150.38;4224491;27;20396;-73
2022/04/27 04:50:55;;;;;;;15.15;10.48;;;;;;;2.67;100.00;99167.78;4224554;27;20479;-72
2022/04/27 04:52:56;;;;;;;16.10;10.10;;;;;;;2.66;100.00;99159.91;4220450;28;20053;-73
2022/04/27 04:54:56;;;;;;;16.05;10.02;;;;;;;2.69;100.00;99168.28;4226909;27;20047;-72
2022/04/27 04:56:57;;;;;;;16.05;10.55;;;;;;;2.72;100.00;99172.31;4219404;28;20044;-72
2022/04/27 04:58:57;;;;;;;17.67;11.45;;;;;;;2.67;100.00;99167.78;4161810;27;20437;-72
2022/04/27 05:00:58;;;;;;;17.13;10.02;;;;;;;2.72;100.00;99167.66;4222413;27;20048;-72
2022/04/27 05:02:59;;;;;;;34.50;11.55;;;;;;;2.71;100.00;99185.16;4224003;27;20048;-72
2022/04/27 05:05:02;;;;;;;16.05;10.95;;;;;;;2.70;100.00;99185.47;4219941;27;20027;-72
2022/04/27 05:07:03;;;;;;;18.85;11.27;;;;;;;2.73;100.00;99184.84;4219350;27;20189;-72
2022/04/27 05:09:04;;;;;;;17.40;10.98;;;;;;;2.77;100.00;99188.59;4226938;27;20453;-72
2022/04/27 05:11:04;;;;;;;19.80;11.05;;;;;;;2.85;100.00;99187.88;4225421;27;20066;-72
2022/04/27 05:13:04;;;;;;;17.83;11.63;;;;;;;2.89;100.00;99197.03;4219656;28;20097;-72
2022/04/27 05:15:06;;;;;;;19.23;10.85;;;;;;;2.97;100.00;99201.78;4219947;28;20035;-72
2022/04/27 05:17:06;;;;;;;20.38;11.30;;;;;;;3.01;100.00;99199.25;4224602;27;20079;-73
2022/04/27 05:19:07;;;;;;;19.60;11.23;;;;;;;3.08;100.00;99203.16;4220245;28;20035;-72
2022/04/27 05:21:07;;;;;;;18.92;11.43;;;;;;;3.13;100.00;99204.94;4219718;28;20074;-72
2022/04/27 05:23:08;;;;;;;18.30;10.82;;;;;;;3.27;100.00;99202.94;4226575;27;20050;-72
2022/04/27 05:25:09;;;;;;;19.65;11.80;;;;;;;3.36;100.00;99206.56;4220235;28;20042;-72
2022/04/27 05:27:09;;;;;;;17.55;10.93;;;;;;;3.42;100.00;99206.44;4218751;28;20130;-72
2022/04/27 05:33:47;;;;;;;16.60;10.18;;;;;;;3.61;100.00;99213.28;4226233;27;20536;-72
2022/04/27 05:35:47;;;;;;;16.67;10.95;;;;;;;3.68;100.00;99215.59;4218862;27;20047;-72
2022/04/27 05:37:48;;;;;;;17.90;11.40;;;;;;;3.75;100.00;99215.13;4217888;28;20039;-72
2022/04/27 05:39:48;;;;;;;16.88;10.63;;;;;;;3.82;100.00;99221.78;4218450;28;20116;-72
2022/04/27 05:41:50;;;;;;;17.35;10.40;;;;;;;3.91;100.00;99232.75;4218080;28;20046;-72
2022/04/27 05:43:50;;;;;;;16.75;10.20;;;;;;;3.96;100.00;99229.88;4218413;28;20055;-72
2022/04/27 05:45:52;;;;;;;18.77;11.68;;;;;;;4.03;100.00;99235.69;4218102;28;20130;-72
2022/04/27 05:47:52;;;;;;;19.00;10.80;;;;;;;4.09;100.00;99230.91;4217638;28;20255;-72
2022/04/27 05:49:53;;;;;;;20.10;10.77;;;;;;;4.09;100.00;99234.44;4220621;28;20477;-72
2022/04/27 05:51:53;;;;;;;18.50;11.45;;;;;;;4.16;100.00;99233.97;4227698;27;20087;-72
2022/04/27 05:53:53;;;;;;;18.60;11.13;;;;;;;4.23;100.00;99234.34;4222262;28;20055;-72
2022/04/27 05:55:54;;;;;;;19.48;11.73;;;;;;;4.24;100.00;99241.44;4221431;27;20364;-72
2022/04/27 05:57:54;;;;;;;17.85;11.77;;;;;;;4.32;100.00;99240.63;4219195;28;20074;-72
2022/04/27 05:59:54;;;;;;;19.02;12.23;;;;;;;4.42;100.00;99245.81;4219567;28;20131;-72
2022/04/27 06:01:55;;;;;;;21.25;12.43;;;;;;;4.48;100.00;99251.97;4219421;28;20036;-72
2022/04/27 06:03:55;;;;;;;19.52;11.93;;;;;;;4.60;100.00;99256.81;4221480;28;20841;-72
2022/04/27 06:05:56;;;;;;;19.23;13.00;;;;;;;4.68;100.00;99259.56;4219342;28;20063;-72
2022/04/27 06:07:57;;;;;;;20.90;12.25;;;;;;;4.74;100.00;99249.28;4218803;28;20043;-72
2022/04/27 06:09:57;;;;;;;19.40;12.50;;;;;;;4.84;100.00;99251.69;4220663;28;20285;-72
2022/04/27 06:11:57;;;;;;;18.58;12.27;;;;;;;4.98;100.00;99257.03;4219013;28;20081;-72
2022/04/27 06:13:57;;;;;;;21.65;12.65;;;;;;;5.07;100.00;99253.16;4219584;28;20043;-72
2022/04/27 06:15:58;;;;;;;21.65;11.85;;;;;;;5.20;100.00;99261.53;4219870;27;20043;-72
2022/04/27 06:17:58;;;;;;;19.10;13.32;;;;;;;5.19;100.00;99251.69;4221009;28;20043;-72
2022/04/27 06:19:58;;;;;;;21.65;13.05;;;;;;;5.23;100.00;99255.41;4219606;28;20380;-72
2022/04/27 06:21:59;;;;;;;22.25;13.02;;;;;;;5.28;100.00;99260.72;4217943;28;20048;-72
2022/04/27 06:24:00;;;;;;;21.40;12.90;;;;;;;5.35;100.00;99261.06;4219445;28;20501;-72
2022/04/27 06:26:00;;;;;;;25.13;13.80;;;;;;;5.46;100.00;99264.25;4218957;28;20084;-72
2022/04/27 06:28:01;;;;;;;21.30;13.80;;;;;;;5.61;100.00;99267.31;4218707;28;20424;-72
2022/04/27 06:30:01;;;;;;;23.42;14.20;;;;;;;5.68;100.00;99263.25;4219463;28;20054;-72
2022/04/27 06:32:02;;;;;;;21.27;12.00;;;;;;;5.72;100.00;99264.22;4219160;28;20110;-72
2022/04/27 06:34:03;;;;;;;23.55;13.57;;;;;;;5.73;100.00;99272.13;4219614;28;20462;-72
2022/04/27 06:36:03;;;;;;;19.25;12.85;;;;;;;5.72;100.00;99277.97;4219280;28;20040;-72
2022/04/27 06:38:04;;;;;;;21.73;12.88;;;;;;;5.79;100.00;99281.81;4217745;28;20023;-72
2022/04/27 06:40:05;;;;;;;21.83;13.20;;;;;;;5.83;100.00;99273.72;4218585;28;20097;-72
2022/04/27 06:42:06;;;;;;;24.10;14.18;;;;;;;5.89;100.00;99283.41;4219394;28;20081;-72
2022/04/27 06:44:07;;;;;;;23.15;13.98;;;;;;;5.89;100.00;99275.16;4218864;28;20217;-72
2022/04/27 06:46:07;;;;;;;24.85;14.25;;;;;;;6.03;100.00;99285.97;4219229;28;20319;-72
2022/04/27 06:48:08;;;;;;;22.73;14.05;;;;;;;6.19;100.00;99287.03;4218590;27;20286;-73
2022/04/27 06:50:12;;;;;;;22.95;14.07;;;;;;;6.33;100.00;99290.38;4219248;28;20028;-72
2022/04/27 06:52:12;;;;;;;23.25;13.18;;;;;;;6.48;100.00;99295.34;4219538;28;20537;-72
2022/04/27 06:54:12;;;;;;;21.42;13.75;;;;;;;6.59;100.00;99300.44;4221122;28;20138;-72
2022/04/27 06:56:13;;;;;;;24.98;15.15;;;;;;;6.68;100.00;99296.50;4221369;28;20306;-72
2022/04/27 06:58:13;;;;;;;22.58;14.07;;;;;;;6.76;100.00;99295.66;4221497;28;20055;-72
2022/04/27 07:00:14;;;;;;;26.92;14.05;;;;;;;6.88;100.00;99294.16;4222355;28;20030;-72
2022/04/27 07:02:15;;;;;;;21.15;13.57;;;;;;;7.01;100.00;99298.56;4222257;28;20031;-72
2022/04/27 07:04:16;;;;;;;20.00;13.80;;;;;;;7.15;100.00;99310.13;4222013;28;20039;-72
2022/04/27 07:06:17;;;;;;;20.92;14.25;;;;;;;7.29;100.00;99307.13;4222238;28;20465;-72
2022/04/27 07:08:17;;;;;;;21.60;13.95;;;;;;;7.42;99.36;99310.72;4221005;27;20090;-72
2022/04/27 07:10:19;;;;;;;21.38;13.85;;;;;;;7.51;96.71;99308.69;4224777;27;20034;-72
2022/04/27 07:12:20;;;;;;;19.92;13.75;;;;;;;7.52;95.78;99315.81;4228138;27;20364;-72
2022/04/27 07:14:20;;;;;;;22.33;14.35;;;;;;;7.59;95.62;99307.81;4229076;27;20066;-72
2022/04/27 07:16:21;;;;;;;29.77;16.80;;;;;;;7.70;95.22;99322.81;4221873;28;20039;-72
2022/04/27 07:18:21;;;;;;;24.55;15.45;;;;;;;7.71;94.12;99318.09;4220818;28;20039;-72
2022/04/27 07:20:21;;;;;;;21.17;13.65;;;;;;;7.80;94.84;99316.06;4222129;28;20855;-72
2022/04/27 07:22:22;;;;;;;19.80;13.18;;;;;;;7.86;94.51;99321.03;4227989;27;20437;-72
2022/04/27 07:24:22;;;;;;;20.65;12.93;;;;;;;7.89;94.83;99309.31;4222416;28;20039;-72
2022/04/27 07:26:22;;;;;;;25.73;12.73;;;;;;;8.00;92.80;99317.16;4222164;28;20046;-72
2022/04/27 07:28:23;;;;;;;19.75;12.95;;;;;;;8.11;93.11;99315.59;4224347;27;20054;-73
2022/04/27 07:30:23;;;;;;;18.77;11.80;;;;;;;8.13;92.24;99322.34;4222056;28;20417;-72
2022/04/27 07:32:23;;;;;;;18.40;12.48;;;;;;;8.27;92.98;99319.25;4221575;27;20080;-72
2022/04/27 07:34:23;;;;;;;17.20;12.23;;;;;;;8.30;92.92;99324.13;4221740;28;20079;-72
2022/04/27 07:36:24;;;;;;;18.40;12.13;;;;;;;8.40;91.54;99328.41;4221535;27;20080;-72
2022/04/27 07:38:24;;;;;;;18.80;11.90;;;;;;;8.59;90.28;99331.41;4220675;27;20096;-72
2022/04/27 07:40:24;;;;;;;20.23;12.18;;;;;;;8.58;86.96;99327.03;4221797;27;20058;-72
2022/04/27 07:42:25;;;;;;;14.80;10.70;;;;;;;8.57;88.15;99325.44;4221387;28;20123;-72
2022/04/27 07:44:25;;;;;;;17.08;11.60;;;;;;;8.62;89.12;99329.94;4227504;27;20031;-72
2022/04/27 07:46:26;;;;;;;15.02;10.43;;;;;;;8.60;86.91;99329.44;4222380;27;20062;-72
2022/04/27 07:48:32;;;;;;;17.20;11.45;;;;;;;8.56;85.82;99329.34;4221188;28;20142;-72
2022/04/27 07:50:32;;;;;;;15.52;10.45;;;;;;;8.64;84.91;99331.19;4223564;27;20485;-72
2022/04/27 07:52:33;;;;;;;17.98;11.45;;;;;;;8.71;85.03;99334.19;4227509;27;20040;-72
2022/04/27 07:54:33;;;;;;;16.88;10.73;;;;;;;8.84;85.59;99332.19;4221817;28;20174;-72
2022/04/27 07:56:33;;;;;;;16.17;11.05;;;;;;;8.83;85.43;99335.31;4220486;28;20031;-72
2022/04/27 07:58:34;;;;;;;16.48;10.57;;;;;;;8.81;86.35;99346.69;4221299;28;20051;-72
2022/04/27 08:00:35;;;;;;;16.48;10.32;;;;;;;8.84;85.67;99347.97;4220791;27;20109;-72
2022/04/27 08:02:38;;;;;;;16.42;11.07;;;;;;;8.90;84.33;99347.38;4225568;27;20043;-72
2022/04/27 08:04:38;;;;;;;16.42;11.20;;;;;;;8.97;84.35;99353.13;4229454;27;20031;-72
2022/04/27 08:06:38;;;;;;;14.77;10.40;;;;;;;8.93;81.88;99352.19;4220646;27;20096;-72
2022/04/27 08:08:39;;;;;;;17.65;11.75;;;;;;;9.00;81.69;99341.38;4221600;28;20059;-72
2022/04/27 08:10:39;;;;;;;14.88;10.40;;;;;;;9.11;82.33;99352.78;4220392;28;20472;-72
2022/04/27 08:12:41;;;;;;;16.20;11.60;;;;;;;9.24;83.24;99348.84;4221125;28;20432;-72
2022/04/27 08:14:41;;;;;;;14.63;10.05;;;;;;;9.41;82.71;99358.00;4221218;28;20768;-72
2022/04/27 08:16:42;;;;;;;12.13;8.98;;;;;;;9.46;78.13;99353.06;4220472;28;20428;-72
2022/04/27 08:18:42;;;;;;;19.42;11.32;;;;;;;9.53;80.27;99352.47;4221056;28;20112;-72
2022/04/27 08:23:06;;;;;;;13.05;8.27;;;;;;;9.58;72.87;99355.78;4228371;27;20055;-72
2022/04/27 08:25:07;;;;;;;12.00;9.15;;;;;;;9.57;76.44;99354.16;4220685;27;20070;-72
2022/04/27 08:27:07;;;;;;;12.18;8.07;;;;;;;9.54;77.18;99349.34;4220274;28;20039;-72
2022/04/27 08:29:07;;;;;;;11.05;8.60;;;;;;;9.51;78.11;99354.75;4221104;27;20043;-72
2022/04/27 08:31:09;;;;;;;11.88;9.63;;;;;;;9.54;78.64;99359.59;4227154;27;20040;-72
2022/04/27 08:33:11;;;;;;;11.30;9.10;;;;;;;9.56;78.82;99358.09;4220943;28;20039;-72
2022/04/27 08:35:11;;;;;;;12.15;9.63;;;;;;;9.62;77.48;99361.44;4219587;28;20370;-72
2022/04/27 08:37:11;;;;;;;14.50;10.32;;;;;;;9.67;77.69;99357.59;4219846;28;20091;-72
2022/04/27 08:39:13;;;;;;;14.88;10.05;;;;;;;9.69;77.30;99353.34;4231894;27;20394;-72
2022/04/27 08:41:14;;;;;;;12.25;9.32;;;;;;;9.77;79.23;99351.59;4220470;27;20530;-72
2022/04/27 08:43:15;;;;;;;16.80;10.35;;;;;;;9.85;79.79;99358.94;4220570;28;20092;-72
2022/04/27 08:45:16;;;;;;;13.45;10.20;;;;;;;9.94;79.19;99356.81;4220960;28;20166;-72
2022/04/27 08:47:17;;;;;;;14.57;9.70;;;;;;;10.05;80.00;99366.19;4219845;28;20051;-72
2022/04/27 08:49:18;;;;;;;14.63;10.20;;;;;;;10.20;82.32;99363.84;4226076;27;20475;-72
2022/04/27 08:51:18;;;;;;;16.13;10.57;;;;;;;10.28;79.92;99366.47;4223756;27;20035;-73
2022/04/27 08:53:18;;;;;;;14.02;9.82;;;;;;;10.34;78.63;99364.22;4220374;28;20047;-72
2022/04/27 08:55:20;;;;;;;14.43;10.77;;;;;;;10.36;77.64;99368.25;4220543;27;20794;-72
2022/04/27 08:57:20;;;;;;;13.00;10.20;;;;;;;10.37;76.43;99363.53;4219375;28;20068;-72
2022/04/27 08:59:20;;;;;;;15.40;9.80;;;;;;;10.37;77.51;99364.34;4220639;28;20126;-72
2022/04/27 09:01:21;;;;;;;13.73;10.35;;;;;;;10.40;77.54;99363.59;4220248;28;20085;-72
2022/04/27 09:03:21;;;;;;;15.27;10.60;;;;;;;10.46;76.54;99372.47;4220095;28;20475;-72
2022/04/27 09:05:26;;;;;;;13.65;10.13;;;;;;;10.45;75.08;99364.53;4219956;28;20047;-72
2022/04/27 09:07:26;;;;;;;14.55;10.45;;;;;;;10.47;75.51;99362.19;4219811;28;20040;-72
2022/04/27 09:09:37;;;;;;;15.75;10.35;;;;;;;10.56;76.58;99373.88;4219464;28;20043;-72
2022/04/27 09:11:37;;;;;;;15.90;10.32;;;;;;;10.63;75.42;99377.66;4222184;27;20046;-73
2022/04/27 09:13:38;;;;;;;16.67;10.82;;;;;;;10.76;77.54;99372.00;4219756;27;20074;-73
2022/04/27 09:15:39;;;;;;;13.98;9.95;;;;;;;10.84;75.37;99374.63;4220473;28;20464;-73
2022/04/27 09:22:18;;;;;;;13.90;9.70;;;;;;;10.96;73.02;99368.16;4220165;28;20042;-72
2022/04/27 09:24:19;;;;;;;15.32;10.50;;;;;;;11.03;74.51;99381.38;4219823;28;20073;-73
2022/04/27 09:26:22;;;;;;;15.45;10.18;;;;;;;11.15;74.95;99382.06;4220088;28;20447;-72
2022/04/27 09:28:29;;;;;;;12.45;8.93;;;;;;;11.24;71.19;99379.09;4219298;28;20499;-73
2022/04/27 09:30:31;;;;;;;14.13;9.25;;;;;;;11.18;70.00;99375.84;4218742;28;20036;-72
2022/04/27 09:32:32;;;;;;;14.18;9.40;;;;;;;11.23;70.26;99375.53;4220099;27;20039;-72
2022/04/27 09:34:47;;;;;;;12.52;9.57;;;;;;;11.37;70.70;99371.50;4225995;27;20154;-72
2022/04/27 09:36:50;;;;;;;12.43;9.68;;;;;;;11.43;74.07;99373.63;4219111;28;20476;-72
2022/04/27 09:38:51;;;;;;;15.38;10.10;;;;;;;11.57;73.36;99380.63;4226546;27;20078;-73